createdAt,value
2022-07-29T00:03:22.456Z,3.88
2022-07-29T00:08:17.509Z,3.30
2022-07-29T00:13:12.042Z,3.65
2022-07-29T00:18:06.998Z,4.80
2022-07-29T00:23:01.236Z,4.85
2022-07-29T00:27:55.609Z,4.07
2022-07-29T00:32:49.619Z,4.38
2022-07-29T00:37:42.838Z,5.38
2022-07-29T00:42:46.678Z,5.88
2022-07-29T00:47:40.653Z,6.00
2022-07-29T00:52:36.083Z,6.07
2022-07-29T00:57:30.292Z,6.93
2022-07-29T01:02:23.760Z,6.82
2022-07-29T01:07:18.413Z,6.57
2022-07-29T01:12:12.115Z,7.45
2022-07-29T01:17:24.113Z,6.18
2022-07-29T01:22:35.571Z,6.90
2022-07-29T01:27:50.231Z,6.35
2022-07-29T01:32:45.964Z,7.18
2022-07-29T01:38:01.102Z,6.30
2022-07-29T01:42:57.545Z,7.40
2022-07-29T01:48:09.231Z,6.80
2022-07-29T01:53:05.829Z,6.28
2022-07-29T01:58:01.426Z,7.00
2022-07-29T02:02:55.821Z,6.45
2022-07-29T02:07:49.772Z,5.22
2022-07-29T02:12:46.622Z,4.65
2022-07-29T02:17:49.802Z,4.90
2022-07-29T02:22:44.177Z,4.57
2022-07-29T02:27:39.921Z,5.00
2022-07-29T02:32:34.710Z,5.55
2022-07-29T02:37:33.634Z,5.93
2022-07-29T02:42:28.673Z,4.97
2022-07-29T02:47:41.847Z,5.80
2022-07-29T02:52:38.771Z,6.03
2022-07-29T02:57:53.848Z,6.18
2022-07-29T03:02:58.659Z,7.25
2022-07-29T03:08:03.475Z,6.88
2022-07-29T03:12:58.495Z,6.35
2022-07-29T03:17:53.304Z,6.70
2022-07-29T03:22:50.912Z,8.13
2022-07-29T03:27:48.628Z,8.27
2022-07-29T03:32:42.069Z,7.30
2022-07-29T03:37:38.486Z,8.75
2022-07-29T03:42:34.524Z,8.05
2022-07-29T03:47:43.727Z,7.78
2022-07-29T03:52:45.412Z,8.00
2022-07-29T03:57:40.788Z,8.65
2022-07-29T04:02:35.299Z,11.43
2022-07-29T04:07:29.332Z,12.20
2022-07-29T04:12:22.970Z,13.25
2022-07-29T04:17:17.684Z,12.27
2022-07-29T04:22:10.623Z,12.52
2022-07-29T04:27:04.701Z,12.02
2022-07-29T04:31:59.188Z,10.52
2022-07-29T04:36:53.528Z,9.57
2022-07-29T04:41:47.995Z,9.68
2022-07-29T04:46:42.512Z,9.98
2022-07-29T04:51:36.863Z,9.75
2022-07-29T04:56:30.004Z,10.02
2022-07-29T05:01:24.296Z,10.32
2022-07-29T05:06:18.969Z,9.50
2022-07-29T05:11:15.889Z,10.98
2022-07-29T05:16:11.778Z,10.73
2022-07-29T05:21:05.981Z,12.25
2022-07-29T05:26:00.575Z,12.57
2022-07-29T05:30:54.912Z,13.05
2022-07-29T05:35:48.760Z,12.57
2022-07-29T05:40:42.976Z,10.88
2022-07-29T05:45:49.240Z,12.77
2022-07-29T05:50:44.180Z,12.00
2022-07-29T05:55:41.461Z,12.40
2022-07-29T06:00:36.252Z,12.57
2022-07-29T06:05:35.194Z,11.57
2022-07-29T06:10:29.451Z,12.38
2022-07-29T06:15:23.344Z,11.80
2022-07-29T06:20:16.990Z,11.23
2022-07-29T06:25:11.475Z,11.85
2022-07-29T06:30:10.966Z,11.77
2022-07-29T06:35:32.895Z,11.50
2022-07-29T06:40:37.185Z,11.88
2022-07-29T06:45:31.796Z,11.60
2022-07-29T06:50:26.049Z,11.20
2022-07-29T06:55:24.902Z,12.73
2022-07-29T07:00:20.471Z,10.30
2022-07-29T07:05:14.358Z,10.95
2022-07-29T07:10:10.389Z,9.32
2022-07-29T07:15:04.535Z,9.50
2022-07-29T07:19:58.685Z,11.68
2022-07-29T07:24:52.740Z,11.50
2022-07-29T07:29:46.740Z,11.07
2022-07-29T07:34:41.236Z,12.27
2022-07-29T07:39:35.416Z,9.30
2022-07-29T07:44:28.884Z,11.48
2022-07-29T07:49:22.498Z,11.18
2022-07-29T07:54:15.831Z,9.75
2022-07-29T07:59:10.817Z,9.40
2022-07-29T08:04:06.292Z,8.00
2022-07-29T08:09:26.641Z,8.73
2022-07-29T08:14:15.622Z,9.00
2022-07-29T08:19:10.388Z,9.25
2022-07-29T08:24:22.231Z,9.40
2022-07-29T08:29:19.929Z,7.85
2022-07-29T08:34:14.872Z,7.13
2022-07-29T08:39:09.460Z,7.55
2022-07-29T08:44:03.923Z,6.65
2022-07-29T08:48:58.570Z,8.05
2022-07-29T08:53:52.248Z,8.20
2022-07-29T08:58:47.980Z,4.85
2022-07-29T09:03:46.994Z,6.43
2022-07-29T09:08:42.677Z,6.07
2022-07-29T09:13:37.781Z,6.10
2022-07-29T09:18:43.026Z,6.32
2022-07-29T09:23:37.588Z,5.25
2022-07-29T09:28:31.448Z,4.78
2022-07-29T09:33:26.308Z,4.72
2022-07-29T09:38:20.660Z,6.68
2022-07-29T09:43:14.935Z,5.20
2022-07-29T09:48:25.762Z,4.32
2022-07-29T09:53:39.379Z,5.15
2022-07-29T09:58:35.095Z,6.10
2022-07-29T10:03:29.775Z,6.63
2022-07-29T10:08:31.381Z,6.15
2022-07-29T10:13:28.698Z,5.32
2022-07-29T10:18:22.560Z,5.50
2022-07-29T10:23:17.428Z,5.68
2022-07-29T10:28:15.772Z,5.13
2022-07-29T10:33:28.023Z,5.15
2022-07-29T10:39:00.566Z,5.80
2022-07-29T10:44:17.234Z,4.80
2022-07-29T10:49:16.042Z,5.38
2022-07-29T10:54:10.483Z,5.47
2022-07-29T10:59:23.534Z,5.43
2022-07-29T11:04:25.049Z,4.28
2022-07-29T11:09:34.902Z,4.45
2022-07-29T11:14:56.603Z,4.45
2022-07-29T11:19:52.023Z,4.28
2022-07-29T11:24:50.244Z,4.00
2022-07-29T11:29:50.386Z,4.10
2022-07-29T11:34:44.467Z,4.10
2022-07-29T11:39:45.297Z,4.13
2022-07-29T11:45:04.337Z,3.95
2022-07-29T11:50:44.272Z,3.78
2022-07-29T11:55:51.330Z,4.13
2022-07-29T12:00:49.427Z,4.43
2022-07-29T12:05:48.451Z,4.43
2022-07-29T12:10:47.735Z,4.03
2022-07-29T12:15:47.104Z,3.90
2022-07-29T12:20:41.653Z,3.30
2022-07-29T12:25:38.996Z,4.05
2022-07-29T12:30:43.192Z,3.80
2022-07-29T12:35:39.476Z,3.97
2022-07-29T12:40:33.911Z,3.90
2022-07-29T12:45:32.782Z,3.97
2022-07-29T12:50:27.062Z,4.25
2022-07-29T12:56:15.530Z,4.05
2022-07-29T13:01:21.900Z,3.70
2022-07-29T13:06:33.614Z,4.90
2022-07-29T13:11:35.894Z,4.03
2022-07-29T13:16:31.370Z,3.78
2022-07-29T13:21:26.020Z,3.70
2022-07-29T13:26:21.620Z,3.90
2022-07-29T13:31:15.253Z,4.10
2022-07-29T13:36:09.558Z,4.05
2022-07-29T13:41:04.852Z,4.07
2022-07-29T13:46:00.169Z,4.20
2022-07-29T13:50:54.380Z,3.85
2022-07-29T13:55:48.662Z,3.83
2022-07-29T14:00:42.547Z,3.88
2022-07-29T14:05:36.436Z,3.90
2022-07-29T14:10:29.593Z,3.72
2022-07-29T14:15:24.725Z,4.00
2022-07-29T14:20:19.251Z,3.78
2022-07-29T14:25:13.665Z,5.35
2022-07-29T14:30:11.419Z,4.28
2022-07-29T14:35:06.195Z,4.97
2022-07-29T14:40:04.100Z,12.25
2022-07-29T14:44:58.903Z,12.50
2022-07-29T14:49:51.924Z,14.10
2022-07-29T14:54:46.346Z,9.93
2022-07-29T14:59:40.525Z,9.73
2022-07-29T15:04:35.259Z,9.18
2022-07-29T15:09:30.901Z,9.07
2022-07-29T15:14:24.943Z,9.25
2022-07-29T15:19:18.899Z,8.45
2022-07-29T15:24:14.087Z,7.57
2022-07-29T15:29:08.205Z,7.68
2022-07-29T15:34:05.853Z,9.52
2022-07-29T15:39:00.508Z,10.05
2022-07-29T15:43:54.295Z,9.90
2022-07-29T15:48:47.421Z,8.77
2022-07-29T15:53:42.213Z,5.63
2022-07-29T15:58:35.733Z,5.75
2022-07-29T16:03:30.512Z,5.90
2022-07-29T16:08:25.564Z,6.07
2022-07-29T16:13:19.549Z,6.43
2022-07-29T16:18:15.574Z,7.25
2022-07-29T16:23:11.030Z,6.82
2022-07-29T16:28:04.354Z,6.70
2022-07-29T16:32:58.680Z,6.63
2022-07-29T16:37:52.309Z,6.82
2022-07-29T16:42:47.563Z,7.07
2022-07-29T16:47:45.717Z,6.80
2022-07-29T16:52:40.567Z,7.68
2022-07-29T16:57:34.166Z,7.32
2022-07-29T17:02:30.243Z,6.88
2022-07-29T17:07:26.644Z,6.82
2022-07-29T17:12:21.331Z,6.13
2022-07-29T17:17:15.674Z,5.78
2022-07-29T17:22:18.668Z,6.25
2022-07-29T17:27:13.184Z,6.47
2022-07-29T17:32:10.253Z,5.82
2022-07-29T17:37:05.921Z,6.72
2022-07-29T17:42:00.088Z,6.57
2022-07-29T17:46:54.073Z,7.72
2022-07-29T17:51:48.997Z,7.35
2022-07-29T17:56:43.159Z,8.00
2022-07-29T18:01:38.860Z,8.20
2022-07-29T18:06:33.523Z,10.05
2022-07-29T18:11:28.308Z,9.95
2022-07-29T18:16:22.291Z,10.20
2022-07-29T18:21:16.276Z,10.20
2022-07-29T18:26:30.580Z,9.77
2022-07-29T18:31:26.181Z,10.85
2022-07-29T18:36:24.176Z,10.98
2022-07-29T18:41:18.365Z,10.82
2022-07-29T18:46:12.353Z,11.52
2022-07-29T18:51:09.117Z,13.60
2022-07-29T18:56:04.372Z,14.15
2022-07-29T19:00:57.949Z,14.32
2022-07-29T19:05:53.084Z,14.30
2022-07-29T19:10:47.256Z,13.98
2022-07-29T19:15:43.894Z,14.05
2022-07-29T19:20:39.539Z,14.25
2022-07-29T19:25:36.507Z,13.10
2022-07-29T19:30:50.528Z,14.40
2022-07-29T19:35:50.354Z,14.25
2022-07-29T19:40:48.593Z,14.03
2022-07-29T19:45:43.764Z,14.27
2022-07-29T19:50:39.290Z,14.80
2022-07-29T19:55:36.949Z,12.90
2022-07-29T20:00:31.819Z,10.98
2022-07-29T20:05:28.066Z,11.00
2022-07-29T20:10:23.891Z,10.05
2022-07-29T20:15:17.722Z,9.20
2022-07-29T20:20:11.530Z,9.82
2022-07-29T20:25:06.679Z,11.77
2022-07-29T20:30:00.372Z,12.05
2022-07-29T20:34:55.477Z,12.98
2022-07-29T20:39:49.877Z,13.32
2022-07-29T20:44:43.483Z,14.50
2022-07-29T20:49:37.179Z,14.40
2022-07-29T20:54:31.612Z,15.02
2022-07-29T20:59:25.755Z,14.98
2022-07-29T21:04:19.897Z,15.32
2022-07-29T21:09:14.637Z,14.50
2022-07-29T21:14:10.705Z,14.90
2022-07-29T21:19:05.685Z,15.10
2022-07-29T21:24:04.207Z,15.02
2022-07-29T21:29:00.540Z,13.70
2022-07-29T21:33:55.032Z,15.13
2022-07-29T21:38:51.671Z,15.10
2022-07-29T21:43:48.604Z,14.77
2022-07-29T21:48:45.108Z,12.02
2022-07-29T21:53:41.922Z,11.88
2022-07-29T21:58:37.869Z,12.18
2022-07-29T22:03:34.308Z,11.35
2022-07-29T22:08:29.659Z,10.95
2022-07-29T22:13:24.475Z,10.65
2022-07-29T22:18:20.645Z,10.75
2022-07-29T22:23:16.714Z,11.35
2022-07-29T22:28:10.627Z,10.13
2022-07-29T22:33:06.423Z,10.90
2022-07-29T22:38:04.668Z,10.73
2022-07-29T22:42:59.095Z,10.40
2022-07-29T22:47:57.897Z,10.48
2022-07-29T22:52:53.204Z,11.10
2022-07-29T22:57:46.846Z,10.40
2022-07-29T23:02:41.511Z,11.27
2022-07-29T23:07:35.952Z,10.73
2022-07-29T23:12:29.815Z,10.95
2022-07-29T23:17:24.428Z,10.95
2022-07-29T23:22:18.454Z,10.38
2022-07-29T23:27:13.003Z,11.20
2022-07-29T23:32:07.770Z,12.25
2022-07-29T23:37:02.113Z,13.18
2022-07-29T23:41:56.145Z,14.65
2022-07-29T23:46:49.790Z,14.07
2022-07-29T23:51:43.329Z,14.75
2022-07-29T23:56:36.954Z,15.48
